< < Back
Terminal Aerodrome Forecast


Current Version              Previous Versions:   1  2  3  4  5  6  7  8  9  

Terminal Aerodrome Forecast

334
FTUS42 KGSP 191700 RRA
TAFCLT
TAF
KCLT 191742Z 1918/2018 03012G20KT 3SM -RADZ BR BKN006 OVC015
     FM192100 03012G20KT 3SM -RA BR FEW006 OVC014
     FM200100 04014G22KT 6SM -RA BR OVC025
     FM200600 04012G20KT P6SM VCSH BKN040
     FM201400 05010KT P6SM SCT080=

Latest METAR

947
SAUS70 KWBC 200300 RRH
MTRCLT
METAR KCLT 200252Z 03014KT 7SM -RA SCT050 OVC080 11/08 A3022 RMK AO2
SLP232 P0005 60035 T01110083 51008


USA.gov is the U.S. government's official web portal to all federal, state and local government web resources and services.